sensor_id;sensor_type;location;lat;lon;timestamp;pressure;altitude;pressure_sealevel;temperature;humidity
44934;BME280;30667;43.614;1.442;2023-02-17T00:01:33;101526.28;;;7.38;100.00
44934;BME280;30667;43.614;1.442;2023-02-17T00:03:58;101530.06;;;7.31;100.00
44934;BME280;30667;43.614;1.442;2023-02-17T00:06:26;101531.31;;;7.35;100.00
44934;BME280;30667;43.614;1.442;2023-02-17T00:08:52;101532.75;;;7.37;100.00
44934;BME280;30667;43.614;1.442;2023-02-17T00:11:18;101532.53;;;7.39;100.00
44934;BME280;30667;43.614;1.442;2023-02-17T00:13:44;101533.56;;;7.38;100.00
44934;BME280;30667;43.614;1.442;2023-02-17T00:16:17;101534.59;;;7.37;100.00
44934;BME280;30667;43.614;1.442;2023-02-17T00:18:42;101530.53;;;7.27;100.00
44934;BME280;30667;43.614;1.442;2023-02-17T00:21:17;101534.84;;;7.28;100.00
44934;BME280;30667;43.614;1.442;2023-02-17T00:23:44;101536.56;;;7.23;100.00
44934;BME280;30667;43.614;1.442;2023-02-17T00:26:10;101542.19;;;7.21;100.00
44934;BME280;30667;43.614;1.442;2023-02-17T00:28:36;101539.47;;;7.21;100.00
44934;BME280;30667;43.614;1.442;2023-02-17T00:31:11;101543.19;;;7.20;100.00
44934;BME280;30667;43.614;1.442;2023-02-17T00:33:37;101537.88;;;7.14;100.00
44934;BME280;30667;43.614;1.442;2023-02-17T00:36:05;101539.56;;;7.08;100.00
44934;BME280;30667;43.614;1.442;2023-02-17T00:38:31;101536.84;;;7.08;100.00
44934;BME280;30667;43.614;1.442;2023-02-17T00:40:56;101543.69;;;7.11;100.00
44934;BME280;30667;43.614;1.442;2023-02-17T00:43:22;101531.88;;;7.12;100.00
44934;BME280;30667;43.614;1.442;2023-02-17T00:45:47;101533.13;;;7.09;100.00
44934;BME280;30667;43.614;1.442;2023-02-17T00:48:12;101533.56;;;7.06;100.00
44934;BME280;30667;43.614;1.442;2023-02-17T00:50:38;101544.75;;;7.03;100.00
44934;BME280;30667;43.614;1.442;2023-02-17T00:53:03;101540.03;;;6.98;100.00
44934;BME280;30667;43.614;1.442;2023-02-17T00:55:29;101538.16;;;6.99;100.00
44934;BME280;30667;43.614;1.442;2023-02-17T00:57:54;101535.25;;;7.00;100.00
44934;BME280;30667;43.614;1.442;2023-02-17T01:00:20;101538.16;;;6.99;100.00
44934;BME280;30667;43.614;1.442;2023-02-17T01:02:45;101534.03;;;6.96;100.00
44934;BME280;30667;43.614;1.442;2023-02-17T01:05:11;101533.66;;;6.93;100.00
44934;BME280;30667;43.614;1.442;2023-02-17T01:07:36;101529.72;;;6.88;100.00
44934;BME280;30667;43.614;1.442;2023-02-17T01:10:03;101534.50;;;6.86;100.00
44934;BME280;30667;43.614;1.442;2023-02-17T01:12:29;101539.25;;;6.84;100.00
44934;BME280;30667;43.614;1.442;2023-02-17T01:14:55;101535.97;;;6.82;100.00
44934;BME280;30667;43.614;1.442;2023-02-17T01:17:20;101531.22;;;6.78;100.00
44934;BME280;30667;43.614;1.442;2023-02-17T01:19:45;101531.22;;;6.78;100.00
44934;BME280;30667;43.614;1.442;2023-02-17T01:22:11;101525.50;;;6.67;100.00
44934;BME280;30667;43.614;1.442;2023-02-17T01:24:38;101525.75;;;6.59;100.00
44934;BME280;30667;43.614;1.442;2023-02-17T01:27:03;101530.72;;;6.62;100.00
44934;BME280;30667;43.614;1.442;2023-02-17T01:29:29;101534.03;;;6.58;100.00
44934;BME280;30667;43.614;1.442;2023-02-17T01:31:55;101528.22;;;6.61;100.00
44934;BME280;30667;43.614;1.442;2023-02-17T01:34:20;101531.78;;;6.54;100.00
44934;BME280;30667;43.614;1.442;2023-02-17T01:36:45;101527.44;;;6.47;100.00
44934;BME280;30667;43.614;1.442;2023-02-17T01:39:13;101528.28;;;6.47;100.00
44934;BME280;30667;43.614;1.442;2023-02-17T01:41:39;101533.72;;;6.34;100.00
44934;BME280;30667;43.614;1.442;2023-02-17T01:44:15;101521.09;;;6.28;100.00
44934;BME280;30667;43.614;1.442;2023-02-17T01:46:46;101529.78;;;6.30;100.00
44934;BME280;30667;43.614;1.442;2023-02-17T01:49:35;101527.13;;;6.23;100.00
44934;BME280;30667;43.614;1.442;2023-02-17T01:52:23;101532.69;;;6.22;100.00
44934;BME280;30667;43.614;1.442;2023-02-17T01:54:58;101537.06;;;6.23;100.00
44934;BME280;30667;43.614;1.442;2023-02-17T01:57:29;101536.22;;;6.15;100.00
44934;BME280;30667;43.614;1.442;2023-02-17T01:59:56;101532.94;;;6.13;100.00
44934;BME280;30667;43.614;1.442;2023-02-17T02:02:22;101540.19;;;6.13;100.00
44934;BME280;30667;43.614;1.442;2023-02-17T02:04:50;101537.50;;;6.13;100.00
44934;BME280;30667;43.614;1.442;2023-02-17T02:07:24;101534.59;;;6.08;100.00
44934;BME280;30667;43.614;1.442;2023-02-17T02:09:53;101535.47;;;6.02;100.00
44934;BME280;30667;43.614;1.442;2023-02-17T02:12:26;101533.78;;;6.07;100.00
44934;BME280;30667;43.614;1.442;2023-02-17T02:14:54;101526.94;;;6.05;100.00
44934;BME280;30667;43.614;1.442;2023-02-17T02:20:06;101526.97;;;5.98;100.00
44934;BME280;30667;43.614;1.442;2023-02-17T02:34:09;101534.00;;;5.86;100.00
44934;BME280;30667;43.614;1.442;2023-02-17T02:36:44;101530.47;;;5.85;100.00
44934;BME280;30667;43.614;1.442;2023-02-17T02:39:16;101538.31;;;5.87;100.00
44934;BME280;30667;43.614;1.442;2023-02-17T02:41:49;101530.06;;;5.88;100.00
44934;BME280;30667;43.614;1.442;2023-02-17T02:44:20;101526.34;;;5.89;100.00
44934;BME280;30667;43.614;1.442;2023-02-17T02:46:55;101529.63;;;5.91;100.00
44934;BME280;30667;43.614;1.442;2023-02-17T02:49:21;101521.81;;;5.96;100.00
44934;BME280;30667;43.614;1.442;2023-02-17T03:00:19;101521.97;;;5.95;100.00
44934;BME280;30667;43.614;1.442;2023-02-17T03:03:04;101524.25;;;5.91;100.00
44934;BME280;30667;43.614;1.442;2023-02-17T03:08:27;101518.47;;;5.94;100.00
44934;BME280;30667;43.614;1.442;2023-02-17T03:10:55;101523.06;;;5.87;100.00
44934;BME280;30667;43.614;1.442;2023-02-17T03:13:21;101517.44;;;5.82;100.00
44934;BME280;30667;43.614;1.442;2023-02-17T03:15:47;101518.94;;;5.71;100.00
44934;BME280;30667;43.614;1.442;2023-02-17T03:18:13;101509.22;;;5.70;100.00
44934;BME280;30667;43.614;1.442;2023-02-17T03:20:44;101515.22;;;5.59;100.00
44934;BME280;30667;43.614;1.442;2023-02-17T03:23:12;101509.03;;;5.65;100.00
44934;BME280;30667;43.614;1.442;2023-02-17T03:25:37;101514.41;;;5.65;100.00
44934;BME280;30667;43.614;1.442;2023-02-17T03:28:03;101515.19;;;5.72;100.00
44934;BME280;30667;43.614;1.442;2023-02-17T03:30:28;101518.72;;;5.79;100.00
44934;BME280;30667;43.614;1.442;2023-02-17T03:32:54;101517.06;;;5.78;100.00
44934;BME280;30667;43.614;1.442;2023-02-17T03:35:19;101517.69;;;5.67;100.00
44934;BME280;30667;43.614;1.442;2023-02-17T03:37:44;101517.88;;;5.72;100.00
44934;BME280;30667;43.614;1.442;2023-02-17T03:40:10;101524.09;;;5.73;100.00
44934;BME280;30667;43.614;1.442;2023-02-17T03:42:36;101524.91;;;5.73;100.00
44934;BME280;30667;43.614;1.442;2023-02-17T03:45:02;101524.69;;;5.61;100.00
44934;BME280;30667;43.614;1.442;2023-02-17T03:47:28;101536.28;;;5.62;100.00
44934;BME280;30667;43.614;1.442;2023-02-17T03:49:53;101527.81;;;5.65;100.00
44934;BME280;30667;43.614;1.442;2023-02-17T03:52:19;101527.19;;;5.56;100.00
44934;BME280;30667;43.614;1.442;2023-02-17T03:54:44;101529.25;;;5.54;100.00
44934;BME280;30667;43.614;1.442;2023-02-17T03:57:10;101529.06;;;5.49;100.00
44934;BME280;30667;43.614;1.442;2023-02-17T03:59:35;101531.97;;;5.41;100.00
44934;BME280;30667;43.614;1.442;2023-02-17T04:02:01;101532.97;;;5.40;100.00
44934;BME280;30667;43.614;1.442;2023-02-17T04:04:26;101534.00;;;5.39;100.00
44934;BME280;30667;43.614;1.442;2023-02-17T04:06:52;101539.16;;;5.40;100.00
44934;BME280;30667;43.614;1.442;2023-02-17T04:09:17;101531.94;;;5.34;100.00
44934;BME280;30667;43.614;1.442;2023-02-17T04:11:43;101529.03;;;5.36;100.00
44934;BME280;30667;43.614;1.442;2023-02-17T04:14:08;101530.09;;;5.41;100.00
44934;BME280;30667;43.614;1.442;2023-02-17T04:16:34;101531.31;;;5.32;100.00
44934;BME280;30667;43.614;1.442;2023-02-17T04:18:59;101538.97;;;5.28;100.00
44934;BME280;30667;43.614;1.442;2023-02-17T04:21:25;101538.34;;;5.26;100.00
44934;BME280;30667;43.614;1.442;2023-02-17T04:23:50;101536.06;;;5.23;100.00
44934;BME280;30667;43.614;1.442;2023-02-17T04:26:15;101534.41;;;5.22;100.00
44934;BME280;30667;43.614;1.442;2023-02-17T04:28:41;101530.91;;;5.22;100.00
44934;BME280;30667;43.614;1.442;2023-02-17T04:31:07;101532.34;;;5.18;100.00
44934;BME280;30667;43.614;1.442;2023-02-17T04:33:33;101538.72;;;5.17;100.00
44934;BME280;30667;43.614;1.442;2023-02-17T04:35:59;101535.41;;;5.08;100.00
44934;BME280;30667;43.614;1.442;2023-02-17T04:38:29;101530.44;;;5.05;100.00
44934;BME280;30667;43.614;1.442;2023-02-17T04:40:56;101536.22;;;5.02;100.00
44934;BME280;30667;43.614;1.442;2023-02-17T04:43:23;101530.22;;;4.93;100.00
44934;BME280;30667;43.614;1.442;2023-02-17T04:45:48;101535.78;;;4.91;100.00
44934;BME280;30667;43.614;1.442;2023-02-17T04:48:14;101532.06;;;4.93;100.00
44934;BME280;30667;43.614;1.442;2023-02-17T04:50:40;101543.59;;;4.86;100.00
44934;BME280;30667;43.614;1.442;2023-02-17T04:53:05;101542.38;;;4.89;100.00
44934;BME280;30667;43.614;1.442;2023-02-17T04:55:31;101544.44;;;4.87;100.00
44934;BME280;30667;43.614;1.442;2023-02-17T04:57:57;101547.53;;;4.84;100.00
44934;BME280;30667;43.614;1.442;2023-02-17T05:00:23;101545.66;;;4.84;100.00
44934;BME280;30667;43.614;1.442;2023-02-17T05:02:48;101545.88;;;4.89;100.00
44934;BME280;30667;43.614;1.442;2023-02-17T05:05:14;101553.72;;;4.91;100.00
44934;BME280;30667;43.614;1.442;2023-02-17T05:07:41;101554.78;;;4.90;100.00
44934;BME280;30667;43.614;1.442;2023-02-17T05:10:07;101550.00;;;4.85;100.00
44934;BME280;30667;43.614;1.442;2023-02-17T05:12:33;101560.09;;;4.83;100.00
44934;BME280;30667;43.614;1.442;2023-02-17T05:14:59;101554.94;;;4.82;100.00
44934;BME280;30667;43.614;1.442;2023-02-17T05:17:25;101558.47;;;4.82;100.00
44934;BME280;30667;43.614;1.442;2023-02-17T05:19:50;101565.84;;;4.80;100.00
44934;BME280;30667;43.614;1.442;2023-02-17T05:22:16;101558.84;;;4.79;100.00
44934;BME280;30667;43.614;1.442;2023-02-17T05:24:41;101571.84;;;4.76;100.00
44934;BME280;30667;43.614;1.442;2023-02-17T05:27:07;101568.53;;;4.73;100.00
44934;BME280;30667;43.614;1.442;2023-02-17T05:29:32;101566.31;;;4.84;100.00
44934;BME280;30667;43.614;1.442;2023-02-17T05:31:58;101568.13;;;4.83;100.00
44934;BME280;30667;43.614;1.442;2023-02-17T05:34:23;101566.91;;;4.79;100.00
44934;BME280;30667;43.614;1.442;2023-02-17T05:36:48;101557.41;;;4.83;100.00
44934;BME280;30667;43.614;1.442;2023-02-17T05:39:14;101568.97;;;4.84;100.00
44934;BME280;30667;43.614;1.442;2023-02-17T05:41:39;101566.88;;;4.72;100.00
44934;BME280;30667;43.614;1.442;2023-02-17T05:44:05;101571.78;;;4.69;100.00
44934;BME280;30667;43.614;1.442;2023-02-17T05:46:30;101567.69;;;4.73;100.00
44934;BME280;30667;43.614;1.442;2023-02-17T05:48:55;101568.13;;;4.77;100.00
44934;BME280;30667;43.614;1.442;2023-02-17T05:51:21;101571.78;;;4.69;100.00
44934;BME280;30667;43.614;1.442;2023-02-17T05:53:46;101574.09;;;4.72;100.00
44934;BME280;30667;43.614;1.442;2023-02-17T05:56:12;101571.19;;;4.67;100.00
44934;BME280;30667;43.614;1.442;2023-02-17T05:58:37;101576.75;;;4.65;100.00
44934;BME280;30667;43.614;1.442;2023-02-17T06:01:07;101573.25;;;4.65;100.00
44934;BME280;30667;43.614;1.442;2023-02-17T06:03:33;101568.09;;;4.70;100.00
44934;BME280;30667;43.614;1.442;2023-02-17T06:05:58;101576.16;;;4.70;100.00
44934;BME280;30667;43.614;1.442;2023-02-17T06:08:24;101570.16;;;4.68;100.00
44934;BME280;30667;43.614;1.442;2023-02-17T06:10:52;101582.97;;;4.72;100.00
44934;BME280;30667;43.614;1.442;2023-02-17T06:13:17;101577.97;;;4.63;100.00
44934;BME280;30667;43.614;1.442;2023-02-17T06:15:42;101575.31;;;4.63;100.00
44934;BME280;30667;43.614;1.442;2023-02-17T06:18:08;101578.59;;;4.65;100.00
44934;BME280;30667;43.614;1.442;2023-02-17T06:20:33;101580.03;;;4.67;100.00
44934;BME280;30667;43.614;1.442;2023-02-17T06:22:59;101580.03;;;4.67;100.00
44934;BME280;30667;43.614;1.442;2023-02-17T06:25:24;101586.84;;;4.63;100.00
44934;BME280;30667;43.614;1.442;2023-02-17T06:27:49;101592.41;;;4.62;100.00
44934;BME280;30667;43.614;1.442;2023-02-17T06:30:15;101590.13;;;4.59;100.00
44934;BME280;30667;43.614;1.442;2023-02-17T06:32:42;101590.75;;;4.67;100.00
44934;BME280;30667;43.614;1.442;2023-02-17T06:35:07;101592.63;;;4.67;100.00
44934;BME280;30667;43.614;1.442;2023-02-17T06:37:32;101591.59;;;4.61;100.00
44934;BME280;30667;43.614;1.442;2023-02-17T06:39:58;101593.81;;;4.58;100.00
44934;BME280;30667;43.614;1.442;2023-02-17T06:42:23;101593.63;;;4.66;100.00
44934;BME280;30667;43.614;1.442;2023-02-17T06:44:49;101598.38;;;4.64;100.00
44934;BME280;30667;43.614;1.442;2023-02-17T06:47:15;101602.72;;;4.65;100.00
44934;BME280;30667;43.614;1.442;2023-02-17T06:49:40;101609.50;;;4.61;100.00
44934;BME280;30667;43.614;1.442;2023-02-17T06:52:05;101603.91;;;4.55;100.00
44934;BME280;30667;43.614;1.442;2023-02-17T06:54:31;101607.59;;;4.48;100.00
44934;BME280;30667;43.614;1.442;2023-02-17T06:56:56;101618.31;;;4.48;100.00
44934;BME280;30667;43.614;1.442;2023-02-17T06:59:22;101618.88;;;4.43;100.00
44934;BME280;30667;43.614;1.442;2023-02-17T07:01:47;101618.31;;;4.48;100.00
44934;BME280;30667;43.614;1.442;2023-02-17T07:04:14;101626.94;;;4.43;100.00
44934;BME280;30667;43.614;1.442;2023-02-17T07:06:40;101624.91;;;4.45;100.00
44934;BME280;30667;43.614;1.442;2023-02-17T07:09:05;101626.19;;;4.56;100.00
44934;BME280;30667;43.614;1.442;2023-02-17T07:11:31;101624.09;;;4.51;100.00
44934;BME280;30667;43.614;1.442;2023-02-17T07:13:57;101626.56;;;4.53;100.00
44934;BME280;30667;43.614;1.442;2023-02-17T07:16:23;101621.88;;;4.55;100.00
44934;BME280;30667;43.614;1.442;2023-02-17T07:18:49;101629.91;;;4.55;100.00
44934;BME280;30667;43.614;1.442;2023-02-17T07:21:14;101624.53;;;4.55;100.00
44934;BME280;30667;43.614;1.442;2023-02-17T07:23:40;101629.75;;;4.63;100.00
44934;BME280;30667;43.614;1.442;2023-02-17T07:26:07;101638.38;;;4.59;100.00
44934;BME280;30667;43.614;1.442;2023-02-17T07:28:34;101639.22;;;4.66;100.00
44934;BME280;30667;43.614;1.442;2023-02-17T07:31:09;101641.78;;;4.81;100.00
44934;BME280;30667;43.614;1.442;2023-02-17T07:33:35;101640.63;;;4.97;100.00
44934;BME280;30667;43.614;1.442;2023-02-17T07:36:08;101650.56;;;5.09;100.00
44934;BME280;30667;43.614;1.442;2023-02-17T07:38:35;101646.19;;;4.95;100.00
44934;BME280;30667;43.614;1.442;2023-02-17T07:41:07;101650.47;;;4.89;100.00
44934;BME280;30667;43.614;1.442;2023-02-17T07:43:33;101650.44;;;4.83;100.00
44934;BME280;30667;43.614;1.442;2023-02-17T07:45:58;101657.47;;;4.84;100.00
44934;BME280;30667;43.614;1.442;2023-02-17T07:48:23;101666.75;;;4.81;100.00
44934;BME280;30667;43.614;1.442;2023-02-17T07:50:49;101662.00;;;4.83;100.00
44934;BME280;30667;43.614;1.442;2023-02-17T07:53:14;101660.59;;;4.87;100.00
44934;BME280;30667;43.614;1.442;2023-02-17T07:55:40;101662.47;;;4.94;100.00
44934;BME280;30667;43.614;1.442;2023-02-17T07:58:05;101668.88;;;4.99;100.00
44934;BME280;30667;43.614;1.442;2023-02-17T08:00:30;101671.81;;;5.04;100.00
44934;BME280;30667;43.614;1.442;2023-02-17T08:02:56;101676.97;;;5.06;100.00
44934;BME280;30667;43.614;1.442;2023-02-17T08:05:21;101663.22;;;5.22;100.00
44934;BME280;30667;43.614;1.442;2023-02-17T08:07:47;101667.56;;;5.23;100.00
44934;BME280;30667;43.614;1.442;2023-02-17T08:10:12;101659.72;;;5.22;100.00
44934;BME280;30667;43.614;1.442;2023-02-17T08:12:56;101659.94;;;5.27;100.00
44934;BME280;30667;43.614;1.442;2023-02-17T08:15:40;101670.66;;;5.34;100.00
44934;BME280;30667;43.614;1.442;2023-02-17T08:18:05;101673.78;;;5.44;100.00
44934;BME280;30667;43.614;1.442;2023-02-17T08:20:31;101679.00;;;5.52;100.00
44934;BME280;30667;43.614;1.442;2023-02-17T08:22:56;101677.94;;;5.46;100.00
44934;BME280;30667;43.614;1.442;2023-02-17T08:25:22;101684.38;;;5.59;100.00
44934;BME280;30667;43.614;1.442;2023-02-17T08:27:47;101687.06;;;5.59;100.00
44934;BME280;30667;43.614;1.442;2023-02-17T08:30:13;101685.41;;;5.64;100.00
44934;BME280;30667;43.614;1.442;2023-02-17T08:32:38;101679.47;;;5.82;100.00
44934;BME280;30667;43.614;1.442;2023-02-17T08:35:04;101688.34;;;5.90;100.00
44934;BME280;30667;43.614;1.442;2023-02-17T08:37:31;101688.53;;;5.95;100.00
44934;BME280;30667;43.614;1.442;2023-02-17T08:39:57;101686.94;;;6.00;100.00
44934;BME280;30667;43.614;1.442;2023-02-17T08:42:26;101691.50;;;6.00;100.00
44934;BME280;30667;43.614;1.442;2023-02-17T08:44:52;101692.31;;;6.00;100.00
44934;BME280;30667;43.614;1.442;2023-02-17T08:47:17;101691.91;;;6.04;100.00
44934;BME280;30667;43.614;1.442;2023-02-17T08:49:43;101693.97;;;6.08;100.00
44934;BME280;30667;43.614;1.442;2023-02-17T08:52:08;101695.22;;;6.26;100.00
44934;BME280;30667;43.614;1.442;2023-02-17T08:54:34;101701.41;;;6.26;100.00
44934;BME280;30667;43.614;1.442;2023-02-17T08:56:59;101697.06;;;6.25;100.00
44934;BME280;30667;43.614;1.442;2023-02-17T08:59:25;101698.50;;;6.34;100.00
44934;BME280;30667;43.614;1.442;2023-02-17T09:01:50;101700.38;;;6.41;100.00
44934;BME280;30667;43.614;1.442;2023-02-17T09:04:16;101699.34;;;6.42;100.00
44934;BME280;30667;43.614;1.442;2023-02-17T09:06:47;101704.72;;;6.42;100.00
44934;BME280;30667;43.614;1.442;2023-02-17T09:09:15;101706.78;;;6.46;100.00
44934;BME280;30667;43.614;1.442;2023-02-17T09:11:42;101704.09;;;6.53;100.00
44934;BME280;30667;43.614;1.442;2023-02-17T09:14:07;101710.69;;;6.57;100.00
44934;BME280;30667;43.614;1.442;2023-02-17T09:16:33;101711.72;;;6.63;100.00
44934;BME280;30667;43.614;1.442;2023-02-17T09:18:58;101707.75;;;6.79;100.00
44934;BME280;30667;43.614;1.442;2023-02-17T09:21:23;101716.84;;;6.78;100.00
44934;BME280;30667;43.614;1.442;2023-02-17T09:23:49;101710.63;;;6.84;100.00
44934;BME280;30667;43.614;1.442;2023-02-17T09:26:16;101709.59;;;6.85;100.00
44934;BME280;30667;43.614;1.442;2023-02-17T09:28:42;101717.66;;;6.91;99.83
44934;BME280;30667;43.614;1.442;2023-02-17T09:33:34;101722.38;;;7.03;97.15
44934;BME280;30667;43.614;1.442;2023-02-17T09:35:59;101714.69;;;7.06;95.61
44934;BME280;30667;43.614;1.442;2023-02-17T09:38:25;101709.53;;;7.12;95.58
44934;BME280;30667;43.614;1.442;2023-02-17T09:40:50;101717.56;;;7.18;95.71
44934;BME280;30667;43.614;1.442;2023-02-17T09:43:18;101722.91;;;7.32;95.59
44934;BME280;30667;43.614;1.442;2023-02-17T09:45:51;101727.81;;;7.41;96.27
44934;BME280;30667;43.614;1.442;2023-02-17T09:48:19;101725.72;;;7.50;96.79
44934;BME280;30667;43.614;1.442;2023-02-17T09:51:28;101728.81;;;7.54;97.34
44934;BME280;30667;43.614;1.442;2023-02-17T09:53:58;101722.09;;;7.70;97.31
44934;BME280;30667;43.614;1.442;2023-02-17T09:56:32;101724.13;;;7.74;96.93
44934;BME280;30667;43.614;1.442;2023-02-17T09:59:19;101725.09;;;7.87;96.22
44934;BME280;30667;43.614;1.442;2023-02-17T10:01:47;101731.03;;;7.95;96.63
44934;BME280;30667;43.614;1.442;2023-02-17T10:04:25;101724.19;;;7.99;96.17
44934;BME280;30667;43.614;1.442;2023-02-17T10:07:06;101735.25;;;8.16;96.24
44934;BME280;30667;43.614;1.442;2023-02-17T10:09:39;101731.41;;;8.31;96.48
44934;BME280;30667;43.614;1.442;2023-02-17T10:12:23;101729.09;;;8.34;95.87
44934;BME280;30667;43.614;1.442;2023-02-17T10:15:23;101736.91;;;8.43;96.09
44934;BME280;30667;43.614;1.442;2023-02-17T10:20:35;101733.97;;;8.51;95.76
44934;BME280;30667;43.614;1.442;2023-02-17T10:23:08;101736.16;;;8.61;94.43
44934;BME280;30667;43.614;1.442;2023-02-17T10:28:20;101731.75;;;8.85;92.84
44934;BME280;30667;43.614;1.442;2023-02-17T10:31:03;101729.88;;;8.85;93.48
44934;BME280;30667;43.614;1.442;2023-02-17T10:34:02;101726.22;;;8.98;92.87
44934;BME280;30667;43.614;1.442;2023-02-17T10:39:14;101724.34;;;9.17;92.60
44934;BME280;30667;43.614;1.442;2023-02-17T10:41:41;101725.41;;;9.16;94.83
44934;BME280;30667;43.614;1.442;2023-02-17T10:44:15;101719.81;;;9.30;93.09
44934;BME280;30667;43.614;1.442;2023-02-17T10:46:43;101729.69;;;9.24;93.52
44934;BME280;30667;43.614;1.442;2023-02-17T10:49:26;101722.88;;;9.33;93.50
44934;BME280;30667;43.614;1.442;2023-02-17T10:51:55;101728.97;;;9.47;93.23
44934;BME280;30667;43.614;1.442;2023-02-17T10:54:37;101724.78;;;9.63;91.61
44934;BME280;30667;43.614;1.442;2023-02-17T10:57:08;101718.16;;;9.77;91.43
44934;BME280;30667;43.614;1.442;2023-02-17T10:59:40;101715.84;;;9.93;89.79
44934;BME280;30667;43.614;1.442;2023-02-17T11:02:43;101711.75;;;10.02;89.07
44934;BME280;30667;43.614;1.442;2023-02-17T11:05:24;101713.84;;;10.00;90.71
44934;BME280;30667;43.614;1.442;2023-02-17T11:07:59;101708.94;;;10.21;92.21
44934;BME280;30667;43.614;1.442;2023-02-17T11:10:30;101710.75;;;10.39;92.71
44934;BME280;30667;43.614;1.442;2023-02-17T11:12:57;101709.94;;;10.38;93.55
44934;BME280;30667;43.614;1.442;2023-02-17T11:15:31;101708.88;;;10.39;94.30
44934;BME280;30667;43.614;1.442;2023-02-17T11:17:59;101706.75;;;10.41;95.11
44934;BME280;30667;43.614;1.442;2023-02-17T11:20:31;101702.53;;;10.45;97.96
44934;BME280;30667;43.614;1.442;2023-02-17T11:23:04;101696.53;;;10.55;97.28
44934;BME280;30667;43.614;1.442;2023-02-17T11:25:32;101700.16;;;10.61;97.02
44934;BME280;30667;43.614;1.442;2023-02-17T11:28:01;101697.00;;;10.64;98.38
44934;BME280;30667;43.614;1.442;2023-02-17T11:30:28;101695.47;;;10.56;99.60
44934;BME280;30667;43.614;1.442;2023-02-17T11:32:54;101689.47;;;10.54;99.57
44934;BME280;30667;43.614;1.442;2023-02-17T11:38:13;101688.25;;;10.85;97.95
44934;BME280;30667;43.614;1.442;2023-02-17T11:40:39;101683.91;;;10.96;98.33
44934;BME280;30667;43.614;1.442;2023-02-17T11:43:05;101683.28;;;10.94;98.59
44934;BME280;30667;43.614;1.442;2023-02-17T11:45:43;101670.22;;;11.03;97.09
44934;BME280;30667;43.614;1.442;2023-02-17T11:56:24;101663.94;;;11.14;97.13
44934;BME280;30667;43.614;1.442;2023-02-17T11:58:58;101655.09;;;11.19;97.34
44934;BME280;30667;43.614;1.442;2023-02-17T12:18:49;101620.91;;;11.47;94.23
44934;BME280;30667;43.614;1.442;2023-02-17T12:24:06;101620.00;;;11.58;93.74
44934;BME280;30667;43.614;1.442;2023-02-17T12:26:46;101615.84;;;11.67;92.93
44934;BME280;30667;43.614;1.442;2023-02-17T12:34:47;101600.31;;;11.79;94.12
44934;BME280;30667;43.614;1.442;2023-02-17T12:37:20;101599.47;;;11.79;94.97
44934;BME280;30667;43.614;1.442;2023-02-17T12:39:52;101602.84;;;11.86;94.79
44934;BME280;30667;43.614;1.442;2023-02-17T12:42:44;101600.06;;;11.98;94.43
44934;BME280;30667;43.614;1.442;2023-02-17T12:45:20;101595.56;;;12.04;95.10
44934;BME280;30667;43.614;1.442;2023-02-17T12:47:55;101597.28;;;12.10;98.05
44934;BME280;30667;43.614;1.442;2023-02-17T12:50:36;101590.19;;;12.26;97.67
44934;BME280;30667;43.614;1.442;2023-02-17T12:53:06;101583.47;;;12.11;98.57
44934;BME280;30667;43.614;1.442;2023-02-17T12:55:40;101588.66;;;12.13;99.78
44934;BME280;30667;43.614;1.442;2023-02-17T12:58:23;101576.13;;;12.12;100.00
44934;BME280;30667;43.614;1.442;2023-02-17T13:01:07;101575.34;;;11.94;100.00
44934;BME280;30667;43.614;1.442;2023-02-17T13:03:35;101572.88;;;11.93;100.00
44934;BME280;30667;43.614;1.442;2023-02-17T13:06:10;101572.22;;;11.86;100.00
44934;BME280;30667;43.614;1.442;2023-02-17T13:08:45;101568.59;;;11.97;100.00
44934;BME280;30667;43.614;1.442;2023-02-17T13:11:31;101562.56;;;12.12;100.00
44934;BME280;30667;43.614;1.442;2023-02-17T13:14:09;101554.16;;;12.52;100.00
44934;BME280;30667;43.614;1.442;2023-02-17T13:16:44;101558.91;;;12.62;100.00
44934;BME280;30667;43.614;1.442;2023-02-17T13:19:13;101553.31;;;12.52;100.00
44934;BME280;30667;43.614;1.442;2023-02-17T13:21:51;101543.22;;;12.25;100.00
44934;BME280;30667;43.614;1.442;2023-02-17T13:24:36;101545.25;;;12.35;100.00
44934;BME280;30667;43.614;1.442;2023-02-17T13:27:29;101533.06;;;12.60;100.00
44934;BME280;30667;43.614;1.442;2023-02-17T13:32:33;101530.19;;;12.71;100.00
44934;BME280;30667;43.614;1.442;2023-02-17T13:37:47;101529.28;;;12.61;100.00
44934;BME280;30667;43.614;1.442;2023-02-17T13:42:42;101520.13;;;12.67;100.00
44934;BME280;30667;43.614;1.442;2023-02-17T13:47:51;101508.09;;;13.17;100.00
44934;BME280;30667;43.614;1.442;2023-02-17T13:50:28;101502.81;;;13.00;100.00
44934;BME280;30667;43.614;1.442;2023-02-17T13:52:54;101500.78;;;12.90;100.00
44934;BME280;30667;43.614;1.442;2023-02-17T13:55:20;101501.22;;;12.55;100.00
44934;BME280;30667;43.614;1.442;2023-02-17T13:57:55;101503.44;;;12.58;100.00
44934;BME280;30667;43.614;1.442;2023-02-17T14:00:24;101493.47;;;12.64;100.00
44934;BME280;30667;43.614;1.442;2023-02-17T14:05:42;101499.63;;;13.08;100.00
44934;BME280;30667;43.614;1.442;2023-02-17T14:08:16;101500.22;;;13.16;100.00
44934;BME280;30667;43.614;1.442;2023-02-17T14:10:43;101490.16;;;12.89;100.00
44934;BME280;30667;43.614;1.442;2023-02-17T14:13:12;101496.53;;;13.00;100.00
44934;BME280;30667;43.614;1.442;2023-02-17T14:15:50;101503.06;;;12.99;100.00
44934;BME280;30667;43.614;1.442;2023-02-17T14:18:27;101490.13;;;12.84;100.00
44934;BME280;30667;43.614;1.442;2023-02-17T14:21:40;101487.66;;;12.82;100.00
44934;BME280;30667;43.614;1.442;2023-02-17T14:23:58;101487.72;;;12.87;100.00
44934;BME280;30667;43.614;1.442;2023-02-17T14:26:31;101482.09;;;12.94;100.00